Time;durP1;ratioP1;P1;durP2;ratioP2;P2;SDS_P1;SDS_P2;PMS_P1;PMS_P2;Temp;Humidity;BMP_temperature;BMP_pressure;BME280_temperature;BME280_humidity;BME280_pressure;Samples;Min_cycle;Max_cycle;Signal;HPM_P1;HPM_P2
2022/09/17 00:00:42;;;;;;;7.25;2.85;;;;;;;;;;4945836;28;20094;-73
2022/09/17 00:03:27;;;;;;;4.65;2.22;;;;;;;;;;4974914;28;20051;-73
2022/09/17 00:06:06;;;;;;;7.85;2.22;;;;;;;;;;4942927;28;20402;-70
2022/09/17 00:08:34;;;;;;;7.25;2.42;;;;;;;;;;4952340;28;20062;-72
2022/09/17 00:11:28;;;;;;;9.30;2.28;;;;;;;;;;4964532;28;20046;-75
2022/09/17 00:13:56;;;;;;;6.63;2.50;;;;;;;;;;4953126;28;20047;-73
2022/09/17 00:16:26;;;;;;;5.90;2.60;;;;;;;;;;4943040;28;20173;-71
2022/09/17 00:18:53;;;;;;;11.00;3.25;;;;;;;;;;4950429;28;20065;-70
2022/09/17 00:21:19;;;;;;;7.38;3.28;;;;;;;;;;4950016;28;20047;-72
2022/09/17 00:23:45;;;;;;;8.93;3.17;;;;;;;;;;4950665;28;20047;-74
2022/09/17 00:26:11;;;;;;;10.05;3.15;;;;;;;;;;4951727;28;20107;-70
2022/09/17 00:28:37;;;;;;;10.95;3.70;;;;;;;;;;4949492;28;20047;-71
2022/09/17 00:31:08;;;;;;;10.00;3.63;;;;;;;;;;4967139;28;20600;-71
2022/09/17 00:33:34;;;;;;;6.88;3.17;;;;;;;;;;4951922;28;20043;-72
2022/09/17 00:36:01;;;;;;;7.45;2.63;;;;;;;;;;4947147;28;20062;-73
2022/09/17 00:38:28;;;;;;;7.07;2.85;;;;;;;;;;4945232;28;20047;-71
2022/09/17 00:40:54;;;;;;;9.73;2.60;;;;;;;;;;4948642;28;20093;-71
2022/09/17 00:43:45;;;;;;;6.28;2.10;;;;;;;;;;4943583;28;20608;-71
2022/09/17 00:46:28;;;;;;;8.65;2.45;;;;;;;;;;4945276;28;20172;-70
2022/09/17 00:48:56;;;;;;;5.72;2.10;;;;;;;;;;4947009;28;20043;-74
2022/09/17 00:51:32;;;;;;;5.38;1.98;;;;;;;;;;4949361;28;20714;-71
2022/09/17 00:53:59;;;;;;;4.32;1.83;;;;;;;;;;4947786;28;20493;-71
2022/09/17 00:56:30;;;;;;;4.50;1.77;;;;;;;;;;4950405;28;20054;-70
2022/09/17 00:58:56;;;;;;;4.57;1.73;;;;;;;;;;4948735;28;20053;-72
2022/09/17 01:01:23;;;;;;;9.30;2.10;;;;;;;;;;4947759;28;20043;-71
2022/09/17 01:03:49;;;;;;;5.50;1.90;;;;;;;;;;4947677;28;20059;-73
2022/09/17 01:06:33;;;;;;;3.80;1.67;;;;;;;;;;4949110;28;20066;-75
2022/09/17 01:08:59;;;;;;;8.25;1.95;;;;;;;;;;4954253;28;20055;-74
2022/09/17 01:11:53;;;;;;;3.55;1.50;;;;;;;;;;4953544;28;20043;-74
2022/09/17 01:14:38;;;;;;;4.38;1.70;;;;;;;;;;4956382;28;20066;-73
2022/09/17 01:17:10;;;;;;;5.65;1.67;;;;;;;;;;4952640;28;20055;-73
2022/09/17 01:20:07;;;;;;;4.05;1.50;;;;;;;;;;4952712;28;20054;-72
2022/09/17 01:22:45;;;;;;;8.13;2.03;;;;;;;;;;4950154;28;20195;-74
2022/09/17 01:25:23;;;;;;;4.85;1.92;;;;;;;;;;4949769;28;20113;-71
2022/09/17 01:28:23;;;;;;;7.63;1.70;;;;;;;;;;4950906;28;20046;-70
2022/09/17 01:31:07;;;;;;;5.13;1.95;;;;;;;;;;4946603;28;20114;-71
2022/09/17 01:33:52;;;;;;;7.15;2.40;;;;;;;;;;4950053;28;20126;-71
2022/09/17 01:36:39;;;;;;;3.80;1.80;;;;;;;;;;4947520;28;20129;-69
2022/09/17 01:39:11;;;;;;;2.78;1.73;;;;;;;;;;4951982;28;20047;-70
2022/09/17 01:41:46;;;;;;;5.28;2.22;;;;;;;;;;4953579;28;20656;-70
2022/09/17 01:44:30;;;;;;;5.82;1.70;;;;;;;;;;4967421;28;20461;-69
2022/09/17 01:47:21;;;;;;;4.75;1.90;;;;;;;;;;4959861;28;20047;-71
2022/09/17 01:49:50;;;;;;;3.47;1.90;;;;;;;;;;4954972;28;20105;-70
2022/09/17 01:52:18;;;;;;;4.50;1.85;;;;;;;;;;4953980;28;20050;-72
2022/09/17 01:54:53;;;;;;;4.88;2.00;;;;;;;;;;4957082;28;20106;-69
2022/09/17 01:58:00;;;;;;;6.20;2.05;;;;;;;;;;4951860;28;20398;-70
2022/09/17 02:00:26;;;;;;;4.60;1.85;;;;;;;;;;4908662;29;20406;-73
2022/09/17 02:03:01;;;;;;;8.05;2.10;;;;;;;;;;4912644;29;20748;-71
2022/09/17 02:05:36;;;;;;;4.38;1.80;;;;;;;;;;4910703;29;20051;-73
2022/09/17 02:08:08;;;;;;;5.13;2.20;;;;;;;;;;4911175;29;20044;-69
2022/09/17 02:10:40;;;;;;;5.28;1.88;;;;;;;;;;4911260;29;20075;-70
2022/09/17 02:13:15;;;;;;;2.70;1.75;;;;;;;;;;4911993;29;20115;-69
2022/09/17 02:15:48;;;;;;;3.83;1.90;;;;;;;;;;4915954;29;20052;-71
2022/09/17 02:18:25;;;;;;;5.78;1.75;;;;;;;;;;4913067;29;20572;-71
2022/09/17 02:20:57;;;;;;;7.32;1.67;;;;;;;;;;4910865;29;20585;-70
2022/09/17 02:23:31;;;;;;;5.07;1.77;;;;;;;;;;4912115;29;20048;-70
2022/09/17 02:26:08;;;;;;;;;;;;;;;;;;4911862;29;20462;-70
2022/09/17 02:28:49;;;;;;;4.28;1.65;;;;;;;;;;4908799;29;19923;-70
2022/09/17 02:31:15;;;;;;;6.18;2.13;;;;;;;;;;4910776;29;20040;-70
2022/09/17 02:33:46;;;;;;;2.95;1.60;;;;;;;;;;4922222;29;20047;-71
2022/09/17 02:36:12;;;;;;;4.70;1.88;;;;;;;;;;4950767;28;20074;-70
2022/09/17 02:38:42;;;;;;;5.35;1.92;;;;;;;;;;4951627;28;20066;-74
2022/09/17 02:41:17;;;;;;;2.60;1.80;;;;;;;;;;4954808;28;20059;-69
2022/09/17 02:43:58;;;;;;;4.43;1.52;;;;;;;;;;4952752;28;20547;-70
2022/09/17 02:46:45;;;;;;;4.05;1.60;;;;;;;;;;4947248;28;20047;-70
2022/09/17 02:49:43;;;;;;;3.70;1.65;;;;;;;;;;4953470;28;20118;-70
2022/09/17 02:52:30;;;;;;;6.85;1.73;;;;;;;;;;4950709;28;20417;-73
2022/09/17 02:55:18;;;;;;;5.07;1.67;;;;;;;;;;4947913;28;20051;-70
2022/09/17 02:57:46;;;;;;;4.93;1.77;;;;;;;;;;4949887;28;20397;-70
2022/09/17 03:00:16;;;;;;;6.03;1.92;;;;;;;;;;4944420;28;20044;-68
2022/09/17 03:02:49;;;;;;;5.82;1.85;;;;;;;;;;4949076;28;20047;-73
2022/09/17 03:05:19;;;;;;;4.57;1.60;;;;;;;;;;4940214;28;20048;-71
2022/09/17 03:07:45;;;;;;;4.07;1.80;;;;;;;;;;4950775;28;20043;-70
2022/09/17 03:10:12;;;;;;;3.67;1.63;;;;;;;;;;4951986;28;20379;-72
2022/09/17 03:12:39;;;;;;;5.57;1.80;;;;;;;;;;4951144;28;20047;-72
2022/09/17 03:15:06;;;;;;;4.43;1.77;;;;;;;;;;4949957;28;20122;-71
2022/09/17 03:17:32;;;;;;;3.55;1.50;;;;;;;;;;4951808;28;20556;-71
2022/09/17 03:19:57;;;;;;;6.60;1.65;;;;;;;;;;4951760;28;20059;-73
2022/09/17 03:22:24;;;;;;;3.40;1.85;;;;;;;;;;4951256;28;20047;-70
2022/09/17 03:24:49;;;;;;;4.93;1.63;;;;;;;;;;4951315;28;20107;-70
2022/09/17 03:27:16;;;;;;;5.22;1.90;;;;;;;;;;4950582;28;20056;-72
2022/09/17 03:29:42;;;;;;;5.43;1.73;;;;;;;;;;4968196;28;20066;-71
2022/09/17 03:32:08;;;;;;;5.22;1.67;;;;;;;;;;4953105;28;20405;-71
2022/09/17 03:34:34;;;;;;;4.43;1.85;;;;;;;;;;4951416;28;20051;-73
2022/09/17 03:37:01;;;;;;;3.33;1.80;;;;;;;;;;4949168;28;20488;-71
2022/09/17 03:39:28;;;;;;;6.70;1.80;;;;;;;;;;4951675;28;20436;-70
2022/09/17 03:41:54;;;;;;;4.63;1.77;;;;;;;;;;4951765;28;20095;-71
2022/09/17 03:44:21;;;;;;;3.88;1.73;;;;;;;;;;4950690;28;20497;-74
2022/09/17 03:46:47;;;;;;;3.38;1.55;;;;;;;;;;4951107;28;20047;-72
2022/09/17 03:49:13;;;;;;;3.95;1.80;;;;;;;;;;4948736;28;20398;-72
2022/09/17 03:51:39;;;;;;;3.63;1.48;;;;;;;;;;4949240;28;20049;-69
2022/09/17 03:54:05;;;;;;;5.72;1.63;;;;;;;;;;4952021;28;20052;-71
2022/09/17 03:56:32;;;;;;;4.47;1.40;;;;;;;;;;4954682;28;20054;-71
2022/09/17 03:58:59;;;;;;;3.63;1.60;;;;;;;;;;4949794;28;20047;-72
2022/09/17 04:01:25;;;;;;;3.75;1.70;;;;;;;;;;4948007;28;20070;-70
2022/09/17 04:03:52;;;;;;;3.22;1.83;;;;;;;;;;4950206;28;20421;-70
2022/09/17 04:06:18;;;;;;;3.50;2.03;;;;;;;;;;4949511;28;20046;-73
2022/09/17 04:08:44;;;;;;;5.03;1.90;;;;;;;;;;4951224;28;20051;-70
2022/09/17 04:11:10;;;;;;;4.22;2.17;;;;;;;;;;4949723;28;20077;-72
2022/09/17 04:13:36;;;;;;;2.97;1.58;;;;;;;;;;4948931;28;20082;-71
2022/09/17 04:16:02;;;;;;;5.13;1.55;;;;;;;;;;4963637;28;20533;-75
2022/09/17 04:18:28;;;;;;;4.15;1.80;;;;;;;;;;4947282;28;20497;-71
2022/09/17 04:20:54;;;;;;;4.88;1.63;;;;;;;;;;4950616;28;20109;-71
2022/09/17 04:23:20;;;;;;;8.52;1.88;;;;;;;;;;4949850;28;21960;-71
2022/09/17 04:25:46;;;;;;;6.82;1.75;;;;;;;;;;4946780;28;20070;-70
2022/09/17 04:28:12;;;;;;;5.38;1.95;;;;;;;;;;4949608;28;20493;-71
2022/09/17 04:30:38;;;;;;;6.45;1.90;;;;;;;;;;4949075;28;20085;-70
2022/09/17 04:33:04;;;;;;;6.15;2.10;;;;;;;;;;4952225;28;20051;-69
2022/09/17 04:35:30;;;;;;;4.47;2.00;;;;;;;;;;4952728;28;20516;-72
2022/09/17 04:37:56;;;;;;;6.47;1.70;;;;;;;;;;4949800;28;20070;-70
2022/09/17 04:40:24;;;;;;;4.30;1.73;;;;;;;;;;4949465;28;20054;-71
2022/09/17 04:42:54;;;;;;;3.60;1.80;;;;;;;;;;4964414;28;20051;-73
2022/09/17 04:45:21;;;;;;;3.75;1.70;;;;;;;;;;4951115;28;20043;-69
2022/09/17 04:47:49;;;;;;;6.82;1.95;;;;;;;;;;4949413;28;20043;-72
2022/09/17 04:50:17;;;;;;;3.03;1.65;;;;;;;;;;4950547;28;20039;-70
2022/09/17 04:52:43;;;;;;;5.55;1.63;;;;;;;;;;4951388;28;20150;-73
2022/09/17 04:55:10;;;;;;;4.03;1.67;;;;;;;;;;4939797;28;20105;-70
2022/09/17 04:57:37;;;;;;;6.80;2.72;;;;;;;;;;4950367;28;20149;-70
2022/09/17 05:00:08;;;;;;;4.38;2.15;;;;;;;;;;4952719;28;20049;-71
2022/09/17 05:02:34;;;;;;;3.38;2.00;;;;;;;;;;4946241;28;20078;-72
2022/09/17 05:05:00;;;;;;;4.45;1.98;;;;;;;;;;4942079;28;20074;-70
2022/09/17 05:07:26;;;;;;;5.05;2.10;;;;;;;;;;4960193;28;20051;-71
2022/09/17 05:09:52;;;;;;;4.22;2.42;;;;;;;;;;4946753;28;20047;-71
2022/09/17 05:12:18;;;;;;;6.88;2.30;;;;;;;;;;4954194;28;20047;-74
2022/09/17 05:14:44;;;;;;;6.60;2.53;;;;;;;;;;4954290;28;20055;-71
2022/09/17 05:17:10;;;;;;;6.30;2.38;;;;;;;;;;4952554;28;20543;-71
2022/09/17 05:19:36;;;;;;;6.60;2.40;;;;;;;;;;4955480;28;20130;-70
2022/09/17 05:22:02;;;;;;;5.50;2.25;;;;;;;;;;4951190;28;20138;-71
2022/09/17 05:24:28;;;;;;;6.60;2.40;;;;;;;;;;4951931;28;20039;-73
2022/09/17 05:26:54;;;;;;;3.85;2.00;;;;;;;;;;4946800;28;20111;-71
2022/09/17 05:29:20;;;;;;;4.65;2.10;;;;;;;;;;4942134;28;20476;-71
2022/09/17 05:31:46;;;;;;;6.43;2.45;;;;;;;;;;4947451;28;20100;-71
2022/09/17 05:34:11;;;;;;;5.47;1.85;;;;;;;;;;4949782;28;20063;-73
2022/09/17 05:36:37;;;;;;;6.35;2.22;;;;;;;;;;4950037;28;20083;-71
2022/09/17 05:39:03;;;;;;;5.20;2.15;;;;;;;;;;4949281;28;20047;-69
2022/09/17 05:41:29;;;;;;;6.40;2.15;;;;;;;;;;4947366;28;20047;-71
2022/09/17 05:43:55;;;;;;;6.80;2.13;;;;;;;;;;4945134;28;20122;-70
2022/09/17 05:46:21;;;;;;;4.78;2.38;;;;;;;;;;4952383;28;20127;-70
2022/09/17 05:48:46;;;;;;;5.07;2.30;;;;;;;;;;4962205;28;20138;-71
2022/09/17 05:51:12;;;;;;;5.18;2.17;;;;;;;;;;4950346;28;20051;-73
2022/09/17 05:53:38;;;;;;;4.13;2.25;;;;;;;;;;4949013;28;20114;-70
2022/09/17 05:56:04;;;;;;;8.07;2.35;;;;;;;;;;4952527;28;20484;-72
2022/09/17 05:58:31;;;;;;;6.70;2.40;;;;;;;;;;4952902;28;20126;-71
2022/09/17 06:01:00;;;;;;;6.05;2.17;;;;;;;;;;4951176;28;20118;-72
2022/09/17 06:03:26;;;;;;;7.75;2.33;;;;;;;;;;4941218;28;20098;-72
2022/09/17 06:05:54;;;;;;;5.10;2.17;;;;;;;;;;4953603;28;20051;-72
2022/09/17 06:08:20;;;;;;;6.53;2.30;;;;;;;;;;4952729;28;20401;-71
2022/09/17 06:10:46;;;;;;;3.25;1.88;;;;;;;;;;4952273;28;20114;-70
2022/09/17 06:13:12;;;;;;;9.95;2.40;;;;;;;;;;4946082;28;20051;-72
2022/09/17 06:15:38;;;;;;;7.78;2.28;;;;;;;;;;4958644;28;20501;-71
2022/09/17 06:18:04;;;;;;;6.90;2.30;;;;;;;;;;4948885;28;20113;-70
2022/09/17 06:20:29;;;;;;;6.38;2.40;;;;;;;;;;4951039;28;20051;-71
2022/09/17 06:22:56;;;;;;;5.25;2.28;;;;;;;;;;4950861;28;20501;-71
2022/09/17 06:25:22;;;;;;;9.38;2.50;;;;;;;;;;4946287;28;20047;-74
2022/09/17 06:27:48;;;;;;;8.75;2.20;;;;;;;;;;4951316;28;20115;-72
2022/09/17 06:30:15;;;;;;;4.93;2.15;;;;;;;;;;4948757;28;20043;-74
2022/09/17 06:32:40;;;;;;;4.55;2.30;;;;;;;;;;4947233;28;20054;-73
2022/09/17 06:35:07;;;;;;;7.25;2.30;;;;;;;;;;4950769;28;20043;-72
2022/09/17 06:37:34;;;;;;;7.93;2.40;;;;;;;;;;4949739;28;20098;-72
2022/09/17 06:40:00;;;;;;;6.28;2.50;;;;;;;;;;4949903;28;20079;-72
2022/09/17 06:42:29;;;;;;;10.77;2.50;;;;;;;;;;4950090;28;20051;-72
2022/09/17 06:44:57;;;;;;;5.18;2.20;;;;;;;;;;4948053;28;20126;-70
2022/09/17 06:47:25;;;;;;;8.63;2.25;;;;;;;;;;4950574;28;20505;-73
2022/09/17 06:49:53;;;;;;;3.83;2.28;;;;;;;;;;4949347;28;20051;-71
2022/09/17 06:52:19;;;;;;;8.45;2.65;;;;;;;;;;4947465;28;20118;-71
2022/09/17 06:54:45;;;;;;;8.88;2.70;;;;;;;;;;4950255;28;20119;-70
2022/09/17 06:57:10;;;;;;;4.88;2.30;;;;;;;;;;4950865;28;20084;-73
2022/09/17 06:59:36;;;;;;;6.20;2.30;;;;;;;;;;4953033;28;20059;-74
2022/09/17 07:02:02;;;;;;;7.97;2.55;;;;;;;;;;4960890;28;20425;-76
2022/09/17 07:04:28;;;;;;;3.95;2.25;;;;;;;;;;4949178;28;20051;-73
2022/09/17 07:06:54;;;;;;;10.25;2.60;;;;;;;;;;4948756;28;20061;-72
2022/09/17 07:09:20;;;;;;;6.97;2.38;;;;;;;;;;4951781;28;20047;-70
2022/09/17 07:11:45;;;;;;;11.30;3.38;;;;;;;;;;4950360;28;20043;-71
2022/09/17 07:14:11;;;;;;;6.13;2.75;;;;;;;;;;4949149;28;20061;-73
2022/09/17 07:16:37;;;;;;;6.35;2.92;;;;;;;;;;4946985;28;20420;-71
2022/09/17 07:19:04;;;;;;;7.32;2.55;;;;;;;;;;4950413;28;20051;-75
2022/09/17 07:21:30;;;;;;;8.70;2.80;;;;;;;;;;4952746;28;20127;-75
2022/09/17 07:23:56;;;;;;;8.95;2.97;;;;;;;;;;4948619;28;20047;-73
2022/09/17 07:26:22;;;;;;;11.27;2.92;;;;;;;;;;4948944;28;20051;-74
2022/09/17 07:28:48;;;;;;;13.70;2.90;;;;;;;;;;4950419;28;20048;-74
2022/09/17 07:31:14;;;;;;;8.45;2.53;;;;;;;;;;4947900;28;20053;-71
2022/09/17 07:33:41;;;;;;;12.93;3.10;;;;;;;;;;4950604;28;20046;-72
2022/09/17 07:36:11;;;;;;;10.80;2.85;;;;;;;;;;4941244;28;20091;-73
2022/09/17 07:38:37;;;;;;;17.33;3.70;;;;;;;;;;4948513;28;20051;-71
2022/09/17 07:41:06;;;;;;;7.63;3.38;;;;;;;;;;4950731;28;20047;-71
2022/09/17 07:43:33;;;;;;;13.38;3.88;;;;;;;;;;4960923;28;20344;-72
2022/09/17 07:46:02;;;;;;;17.83;4.45;;;;;;;;;;4964634;28;20050;-71
2022/09/17 07:48:30;;;;;;;13.55;3.45;;;;;;;;;;4963207;28;20047;-73
2022/09/17 07:50:56;;;;;;;12.18;4.03;;;;;;;;;;4951196;28;20055;-71
2022/09/17 07:53:22;;;;;;;13.98;3.45;;;;;;;;;;4951418;28;20086;-71
2022/09/17 07:55:55;;;;;;;12.07;3.33;;;;;;;;;;4965153;28;20051;-72
2022/09/17 07:58:23;;;;;;;14.00;3.63;;;;;;;;;;4948292;28;20182;-74
2022/09/17 08:00:49;;;;;;;13.38;3.40;;;;;;;;;;4963051;28;20417;-75
2022/09/17 08:03:15;;;;;;;10.85;3.22;;;;;;;;;;4949900;28;20098;-71
2022/09/17 08:05:41;;;;;;;7.05;2.85;;;;;;;;;;4948286;28;20086;-73
2022/09/17 08:08:07;;;;;;;10.55;3.40;;;;;;;;;;4962214;28;20508;-73
2022/09/17 08:10:34;;;;;;;7.30;3.05;;;;;;;;;;4950793;28;20058;-71
2022/09/17 08:13:00;;;;;;;11.73;3.17;;;;;;;;;;4945844;28;20043;-73
2022/09/17 08:15:27;;;;;;;7.75;2.90;;;;;;;;;;4946365;28;20130;-71
2022/09/17 08:17:53;;;;;;;9.23;2.80;;;;;;;;;;4948877;28;20051;-71
2022/09/17 08:20:20;;;;;;;12.18;2.75;;;;;;;;;;4952811;28;20448;-71
2022/09/17 08:22:46;;;;;;;7.75;2.60;;;;;;;;;;4948891;28;20110;-70
2022/09/17 08:25:12;;;;;;;7.47;2.85;;;;;;;;;;4954146;28;20047;-75
2022/09/17 08:27:38;;;;;;;7.63;2.90;;;;;;;;;;4947593;28;20134;-70
2022/09/17 08:30:05;;;;;;;8.07;3.17;;;;;;;;;;4948650;28;20134;-70
2022/09/17 08:32:31;;;;;;;6.45;3.03;;;;;;;;;;4952633;28;20409;-69
2022/09/17 08:34:57;;;;;;;7.90;3.03;;;;;;;;;;4949783;28;20047;-71
2022/09/17 08:37:25;;;;;;;6.85;2.70;;;;;;;;;;4949745;28;20051;-71
2022/09/17 08:39:51;;;;;;;8.88;3.50;;;;;;;;;;4955459;28;20055;-75
2022/09/17 08:42:38;;;;;;;7.80;3.38;;;;;;;;;;4949715;28;20057;-72
2022/09/17 08:45:10;;;;;;;10.35;3.15;;;;;;;;;;4947203;28;20087;-73
2022/09/17 08:47:41;;;;;;;9.00;3.08;;;;;;;;;;4946476;28;20059;-72
2022/09/17 08:50:14;;;;;;;5.93;2.97;;;;;;;;;;4945282;28;20048;-73
2022/09/17 08:53:07;;;;;;;9.57;3.40;;;;;;;;;;4946722;28;20109;-72
2022/09/17 08:55:58;;;;;;;10.85;3.17;;;;;;;;;;4949934;28;20560;-74
2022/09/17 08:58:36;;;;;;;6.55;3.10;;;;;;;;;;4937342;28;20051;-73
2022/09/17 09:01:43;;;;;;;7.25;3.10;;;;;;;;;;4952704;28;20047;-73
2022/09/17 09:04:18;;;;;;;10.30;3.00;;;;;;;;;;4947887;28;20058;-75
2022/09/17 09:07:10;;;;;;;10.98;2.97;;;;;;;;;;4954291;28;20047;-73
2022/09/17 09:09:48;;;;;;;9.77;2.80;;;;;;;;;;4950752;28;20055;-72
2022/09/17 09:12:25;;;;;;;5.13;2.75;;;;;;;;;;4944668;28;20516;-72
2022/09/17 09:15:14;;;;;;;9.68;2.70;;;;;;;;;;4950928;28;20047;-75
2022/09/17 09:17:45;;;;;;;13.25;2.50;;;;;;;;;;4953328;28;20473;-74
2022/09/17 09:20:28;;;;;;;6.80;2.80;;;;;;;;;;4953626;28;20485;-72
2022/09/17 09:22:56;;;;;;;16.13;3.10;;;;;;;;;;4949663;28;20121;-72
2022/09/17 09:25:25;;;;;;;5.55;2.90;;;;;;;;;;4979746;28;20063;-74
2022/09/17 09:28:18;;;;;;;15.55;3.05;;;;;;;;;;4948596;28;20051;-73
2022/09/17 09:31:08;;;;;;;7.65;2.67;;;;;;;;;;4948304;28;20070;-72
2022/09/17 09:33:40;;;;;;;6.57;2.97;;;;;;;;;;4953895;28;20066;-71
2022/09/17 09:36:10;;;;;;;7.40;2.70;;;;;;;;;;4952359;28;20532;-68
2022/09/17 09:38:51;;;;;;;6.05;2.50;;;;;;;;;;4958450;28;20409;-68
2022/09/17 09:41:24;;;;;;;8.45;2.63;;;;;;;;;;4957795;28;20497;-69
2022/09/17 09:44:08;;;;;;;7.85;2.72;;;;;;;;;;4945388;29;20047;-68
2022/09/17 09:46:33;;;;;;;5.47;2.25;;;;;;;;;;4962213;28;20043;-68
2022/09/17 09:49:18;;;;;;;7.35;2.25;;;;;;;;;;4957376;28;20150;-75
2022/09/17 09:52:08;;;;;;;4.97;2.15;;;;;;;;;;4953686;28;20122;-69
2022/09/17 09:55:09;;;;;;;6.65;2.58;;;;;;;;;;4968681;28;20059;-66
2022/09/17 09:57:35;;;;;;;4.82;2.50;;;;;;;;;;4940536;29;20056;-68
2022/09/17 10:00:25;;;;;;;9.07;2.50;;;;;;;;;;4955134;29;20065;-70
2022/09/17 10:03:14;;;;;;;6.85;2.55;;;;;;;;;;4969526;28;20059;-68
2022/09/17 10:06:00;;;;;;;6.32;2.60;;;;;;;;;;4953347;28;20581;-73
2022/09/17 10:08:30;;;;;;;9.77;3.05;;;;;;;;;;4958738;28;20109;-66
2022/09/17 10:11:12;;;;;;;8.05;2.50;;;;;;;;;;4964664;28;20044;-71
2022/09/17 10:13:39;;;;;;;6.50;2.88;;;;;;;;;;4953840;28;20055;-68
2022/09/17 10:16:16;;;;;;;10.45;2.63;;;;;;;;;;4953523;28;20051;-72
2022/09/17 10:18:44;;;;;;;12.77;2.60;;;;;;;;;;4951954;29;20075;-67
2022/09/17 10:21:30;;;;;;;9.10;3.17;;;;;;;;;;4953401;28;20509;-63
2022/09/17 10:23:57;;;;;;;7.82;2.70;;;;;;;;;;4951547;28;20070;-64
2022/09/17 10:26:32;;;;;;;7.07;2.63;;;;;;;;;;4952980;28;20054;-69
2022/09/17 10:29:05;;;;;;;6.57;2.55;;;;;;;;;;4981920;28;20537;-67
2022/09/17 10:31:52;;;;;;;12.80;2.92;;;;;;;;;;4952008;28;20143;-69
2022/09/17 10:34:24;;;;;;;9.63;2.17;;;;;;;;;;4951350;28;20098;-69
2022/09/17 10:36:50;;;;;;;9.45;2.45;;;;;;;;;;4951840;28;20047;-66
2022/09/17 10:39:43;;;;;;;9.07;2.70;;;;;;;;;;4947048;28;20062;-66
2022/09/17 10:42:14;;;;;;;7.13;2.65;;;;;;;;;;4949162;28;20734;-70
2022/09/17 10:44:51;;;;;;;11.27;2.83;;;;;;;;;;4950717;28;20051;-70
2022/09/17 10:47:25;;;;;;;10.80;2.40;;;;;;;;;;4951219;28;20055;-67
2022/09/17 10:50:04;;;;;;;;;;;;;;;;;;4953097;28;20058;-69
2022/09/17 10:52:36;;;;;;;7.88;2.35;;;;;;;;;;4950940;28;20291;-70
2022/09/17 10:55:32;;;;;;;7.82;2.63;;;;;;;;;;4948785;28;20043;-66
2022/09/17 10:58:07;;;;;;;12.80;2.47;;;;;;;;;;4946902;28;20487;-72
2022/09/17 11:00:43;;;;;;;11.13;2.50;;;;;;;;;;4944587;28;20086;-66
2022/09/17 11:03:15;;;;;;;5.93;2.55;;;;;;;;;;4952349;28;20134;-68
2022/09/17 11:06:23;;;;;;;6.07;2.42;;;;;;;;;;4946920;28;20039;-73
2022/09/17 11:09:07;;;;;;;8.93;2.67;;;;;;;;;;4940156;28;20065;-71
2022/09/17 11:12:07;;;;;;;8.73;2.53;;;;;;;;;;4950114;28;20527;-67
2022/09/17 11:14:36;;;;;;;8.95;2.30;;;;;;;;;;4953450;28;20522;-73
2022/09/17 11:17:38;;;;;;;6.47;2.47;;;;;;;;;;4952247;28;20051;-69
2022/09/17 11:20:46;;;;;;;8.65;3.13;;;;;;;;;;4930727;28;20482;-71
2022/09/17 11:23:30;;;;;;;11.95;2.50;;;;;;;;;;4940589;28;20485;-71
2022/09/17 11:26:17;;;;;;;6.30;2.30;;;;;;;;;;4939128;28;20043;-69
2022/09/17 11:29:07;;;;;;;8.30;2.40;;;;;;;;;;4945676;28;20050;-69
2022/09/17 11:32:04;;;;;;;11.75;2.85;;;;;;;;;;4951069;28;20047;-71
2022/09/17 11:34:55;;;;;;;5.07;2.22;;;;;;;;;;4939973;28;20119;-69
2022/09/17 11:37:26;;;;;;;8.40;2.35;;;;;;;;;;4951198;28;20047;-70
2022/09/17 11:39:58;;;;;;;7.30;2.58;;;;;;;;;;4952409;28;20457;-67
2022/09/17 11:42:37;;;;;;;7.55;2.38;;;;;;;;;;4953830;28;20134;-66
2022/09/17 11:45:21;;;;;;;7.80;2.42;;;;;;;;;;4948287;28;20465;-67
2022/09/17 11:47:55;;;;;;;6.18;2.53;;;;;;;;;;4967490;28;20051;-71
2022/09/17 11:50:27;;;;;;;8.77;2.05;;;;;;;;;;4943829;28;20138;-71
2022/09/17 11:53:03;;;;;;;7.80;2.17;;;;;;;;;;4953948;28;20130;-68
2022/09/17 11:55:34;;;;;;;5.93;2.20;;;;;;;;;;4959104;28;20094;-68
2022/09/17 11:58:11;;;;;;;6.05;2.30;;;;;;;;;;4953072;28;20107;-69
2022/09/17 12:00:45;;;;;;;5.85;2.40;;;;;;;;;;4951803;28;20485;-67
2022/09/17 12:03:33;;;;;;;5.93;2.40;;;;;;;;;;4953460;28;20052;-69
2022/09/17 12:06:10;;;;;;;8.48;2.25;;;;;;;;;;4951443;28;20537;-69
2022/09/17 12:08:58;;;;;;;7.03;2.55;;;;;;;;;;4948696;28;20440;-71
2022/09/17 12:11:26;;;;;;;7.57;2.97;;;;;;;;;;4943399;28;20066;-68
2022/09/17 12:14:12;;;;;;;6.13;2.53;;;;;;;;;;4967613;28;20047;-71
2022/09/17 12:16:42;;;;;;;7.25;2.28;;;;;;;;;;4948791;28;20044;-72
2022/09/17 12:19:30;;;;;;;6.70;2.63;;;;;;;;;;4945832;28;20047;-70
2022/09/17 12:22:14;;;;;;;10.13;2.95;;;;;;;;;;4950449;28;20062;-68
2022/09/17 12:24:41;;;;;;;7.55;2.65;;;;;;;;;;4952972;28;20138;-70
2022/09/17 12:27:09;;;;;;;6.22;2.67;;;;;;;;;;4952542;28;20047;-69
2022/09/17 12:29:38;;;;;;;8.05;2.55;;;;;;;;;;4984890;28;20054;-67
2022/09/17 12:32:22;;;;;;;9.98;2.30;;;;;;;;;;4949777;28;20722;-74
2022/09/17 12:34:52;;;;;;;;;;;;;;;;;;4949465;28;20059;-69
2022/09/17 12:37:30;;;;;;;4.82;2.53;;;;;;;;;;4949955;28;20030;-72
2022/09/17 12:40:05;;;;;;;7.68;2.40;;;;;;;;;;4950162;28;20113;-68
2022/09/17 12:43:08;;;;;;;6.07;2.40;;;;;;;;;;4949950;28;20092;-70
2022/09/17 12:46:15;;;;;;;7.40;2.40;;;;;;;;;;4936547;28;20047;-68
2022/09/17 12:48:54;;;;;;;6.18;2.45;;;;;;;;;;4917245;28;20051;-73
2022/09/17 12:51:22;;;;;;;5.25;2.15;;;;;;;;;;4963650;28;20138;-71
2022/09/17 12:54:11;;;;;;;6.18;2.00;;;;;;;;;;4949796;28;20059;-70
2022/09/17 12:57:04;;;;;;;6.75;2.05;;;;;;;;;;4962092;28;20193;-70
2022/09/17 12:59:34;;;;;;;8.02;2.00;;;;;;;;;;4949766;28;20115;-68
2022/09/17 13:02:07;;;;;;;10.75;3.47;;;;;;;;;;4949900;28;20047;-72
2022/09/17 13:05:15;;;;;;;7.43;2.05;;;;;;;;;;4949617;28;20150;-69
2022/09/17 13:07:51;;;;;;;7.88;2.13;;;;;;;;;;4927748;29;20459;-68
2022/09/17 13:10:29;;;;;;;5.50;2.08;;;;;;;;;;4928291;29;20481;-68
2022/09/17 13:13:06;;;;;;;7.15;2.17;;;;;;;;;;4928439;29;20044;-67
2022/09/17 13:16:01;;;;;;;6.28;2.08;;;;;;;;;;4927848;29;20135;-69
2022/09/17 13:18:41;;;;;;;10.68;2.30;;;;;;;;;;4915706;29;20097;-70
2022/09/17 13:21:19;;;;;;;7.10;2.10;;;;;;;;;;4927736;29;20139;-68
2022/09/17 13:23:48;;;;;;;5.45;2.22;;;;;;;;;;4927874;29;20043;-69
2022/09/17 13:26:19;;;;;;;5.85;2.10;;;;;;;;;;4928534;29;20119;-71
2022/09/17 13:28:46;;;;;;;8.65;2.15;;;;;;;;;;4928500;29;20055;-70
2022/09/17 13:31:18;;;;;;;6.82;1.85;;;;;;;;;;4926754;29;20533;-69
2022/09/17 13:33:55;;;;;;;6.18;2.15;;;;;;;;;;4928018;29;20502;-68
2022/09/17 13:36:39;;;;;;;6.25;2.20;;;;;;;;;;4927598;29;20071;-72
2022/09/17 13:39:26;;;;;;;5.18;2.10;;;;;;;;;;4925792;29;20585;-68
2022/09/17 13:42:06;;;;;;;6.15;2.35;;;;;;;;;;4929239;29;20452;-68
2022/09/17 13:44:40;;;;;;;5.50;2.17;;;;;;;;;;4948293;28;20415;-68
2022/09/17 13:47:21;;;;;;;;;;;;;;;;;;4949391;28;20051;-68
2022/09/17 13:50:05;;;;;;;8.75;2.60;;;;;;;;;;4949266;28;19923;-70
2022/09/17 13:52:45;;;;;;;7.88;2.42;;;;;;;;;;4940116;28;20126;-70
2022/09/17 13:55:34;;;;;;;8.38;2.33;;;;;;;;;;4948457;28;20489;-68
2022/09/17 13:58:09;;;;;;;6.88;2.22;;;;;;;;;;4942503;28;20047;-68
2022/09/17 14:01:13;;;;;;;9.90;2.50;;;;;;;;;;4945493;29;20051;-67
2022/09/17 14:03:47;;;;;;;12.68;2.70;;;;;;;;;;4939322;28;20035;-66
2022/09/17 14:06:20;;;;;;;9.93;2.53;;;;;;;;;;4948133;28;20405;-69
2022/09/17 14:08:46;;;;;;;6.55;2.60;;;;;;;;;;4935976;28;20149;-69
2022/09/17 14:11:21;;;;;;;7.22;3.10;;;;;;;;;;4950259;28;20050;-69
2022/09/17 14:14:03;;;;;;;8.60;2.63;;;;;;;;;;4950786;28;20640;-69
2022/09/17 14:16:41;;;;;;;6.93;2.40;;;;;;;;;;4951341;28;20522;-72
2022/09/17 14:19:55;;;;;;;6.03;2.10;;;;;;;;;;4953615;28;20051;-68
2022/09/17 14:22:24;;;;;;;7.88;2.42;;;;;;;;;;4939994;28;20051;-69
2022/09/17 14:24:53;;;;;;;8.98;2.75;;;;;;;;;;4964968;28;20050;-71
2022/09/17 14:27:50;;;;;;;7.95;2.53;;;;;;;;;;4954028;28;20390;-71
2022/09/17 14:30:29;;;;;;;7.03;2.10;;;;;;;;;;4952769;28;20126;-69
2022/09/17 14:33:06;;;;;;;5.70;2.22;;;;;;;;;;4943713;28;20098;-72
2022/09/17 14:35:42;;;;;;;7.55;2.28;;;;;;;;;;4952888;28;20066;-71
2022/09/17 14:38:18;;;;;;;10.80;2.53;;;;;;;;;;4953608;28;20057;-71
2022/09/17 14:40:46;;;;;;;10.07;2.42;;;;;;;;;;4967816;28;20047;-66
2022/09/17 14:43:20;;;;;;;10.63;3.15;;;;;;;;;;4953798;28;20484;-67
2022/09/17 14:45:49;;;;;;;11.40;2.30;;;;;;;;;;4953366;28;20052;-71
2022/09/17 14:48:33;;;;;;;8.20;2.40;;;;;;;;;;4950468;28;20070;-70
2022/09/17 14:51:18;;;;;;;6.88;2.17;;;;;;;;;;4950462;28;20062;-71
2022/09/17 14:54:16;;;;;;;5.95;2.22;;;;;;;;;;4951994;28;20316;-69
2022/09/17 14:56:55;;;;;;;6.50;2.53;;;;;;;;;;4948784;28;20492;-73
2022/09/17 14:59:45;;;;;;;6.80;2.60;;;;;;;;;;4942764;28;20075;-71
2022/09/17 15:02:29;;;;;;;8.40;2.60;;;;;;;;;;4948806;28;20063;-68
2022/09/17 15:04:55;;;;;;;;;;;;;;;;;;4949609;28;20047;-69
2022/09/17 15:07:22;;;;;;;6.65;1.92;;;;;;;;;;4949462;28;19930;-68
2022/09/17 15:09:49;;;;;;;5.15;2.17;;;;;;;;;;4950619;28;20039;-69
2022/09/17 15:12:17;;;;;;;8.32;2.40;;;;;;;;;;4953047;28;20043;-69
2022/09/17 15:14:46;;;;;;;8.85;2.30;;;;;;;;;;4952198;28;20055;-68
2022/09/17 15:17:18;;;;;;;4.88;2.05;;;;;;;;;;4951185;28;20238;-68
2022/09/17 15:19:50;;;;;;;5.18;1.80;;;;;;;;;;4951481;28;20067;-69
2022/09/17 15:22:24;;;;;;;7.82;2.03;;;;;;;;;;4949914;28;20046;-72